createdAt,value
2022-11-24T00:01:20.292Z,95195.34
2022-11-24T00:06:25.088Z,95227.13
2022-11-24T00:11:33.303Z,95221.59
2022-11-24T00:16:37.417Z,95184.81
2022-11-24T00:21:39.728Z,95207.28
2022-11-24T00:26:41.926Z,95196.78
2022-11-24T00:31:44.268Z,95206.44
2022-11-24T00:36:46.695Z,95199.19
2022-11-24T00:41:48.848Z,95212.50
2022-11-24T00:46:51.031Z,95210.81
2022-11-24T00:51:53.310Z,95232.28
2022-11-24T00:56:55.504Z,95199.97
2022-11-24T01:01:57.709Z,95215.72
2022-11-24T01:06:59.877Z,95210.09
2022-11-24T01:12:02.084Z,95225.56
2022-11-24T01:17:04.374Z,95226.06
2022-11-24T01:22:06.604Z,95222.97
2022-11-24T01:27:09.156Z,95225.34
2022-11-24T01:32:11.210Z,95216.69
2022-11-24T01:37:13.274Z,95233.03
2022-11-24T01:42:18.679Z,95218.69
2022-11-24T01:47:36.683Z,95205.34
2022-11-24T01:52:45.121Z,95225.47
2022-11-24T01:57:56.787Z,95229.75
2022-11-24T02:02:59.895Z,95230.38
2022-11-24T02:08:03.300Z,95223.75
2022-11-24T02:13:05.771Z,95239.31
2022-11-24T02:18:08.060Z,95227.00
2022-11-24T02:23:21.729Z,95240.78
2022-11-24T02:28:27.287Z,95210.16
2022-11-24T02:33:30.040Z,95174.50
2022-11-24T02:38:34.089Z,95232.16
2022-11-24T02:43:40.255Z,95211.34
2022-11-24T02:48:42.886Z,95207.47
2022-11-24T02:53:45.194Z,95220.75
2022-11-24T02:58:47.238Z,95191.75
2022-11-24T03:03:49.460Z,95199.44
2022-11-24T03:08:51.740Z,95172.88
2022-11-24T03:13:54.018Z,95221.81
2022-11-24T03:18:56.121Z,95184.19
2022-11-24T03:23:58.184Z,95228.16
2022-11-24T03:29:00.420Z,95225.84
2022-11-24T03:34:02.711Z,95214.84
2022-11-24T03:39:05.223Z,95227.00
2022-11-24T03:44:07.295Z,95227.91
2022-11-24T03:49:10.117Z,95231.13
2022-11-24T03:54:12.453Z,95235.66
2022-11-24T03:59:14.720Z,95228.28
2022-11-24T04:04:16.850Z,95245.91
2022-11-24T04:09:18.887Z,95267.38
2022-11-24T04:14:21.304Z,95240.84
2022-11-24T04:19:23.825Z,95262.50
2022-11-24T04:24:26.085Z,95247.34
2022-11-24T04:29:28.216Z,95248.94
2022-11-24T04:34:30.289Z,95279.31
2022-11-24T04:39:32.567Z,95259.97
2022-11-24T04:44:34.947Z,95268.59
2022-11-24T04:49:37.561Z,95275.28
2022-11-24T04:54:39.710Z,95279.41
2022-11-24T04:59:41.854Z,95279.31
2022-11-24T05:04:48.577Z,95293.47
2022-11-24T05:10:09.061Z,95305.13
2022-11-24T05:15:11.638Z,95323.84
2022-11-24T05:20:13.751Z,95305.25
2022-11-24T05:25:21.264Z,95297.09
2022-11-24T05:30:23.601Z,95335.63
2022-11-24T05:35:26.007Z,95323.38
2022-11-24T05:40:28.604Z,95313.06
2022-11-24T05:45:34.376Z,95303.41
2022-11-24T05:50:37.019Z,95342.75
2022-11-24T05:55:40.580Z,95344.28
2022-11-24T06:00:42.929Z,95323.22
2022-11-24T06:05:47.388Z,95347.53
2022-11-24T06:10:49.626Z,95362.91
2022-11-24T06:15:51.875Z,95365.63
2022-11-24T06:21:09.688Z,95368.25
2022-11-24T06:26:21.540Z,95378.25
2022-11-24T06:31:23.941Z,95376.25
2022-11-24T06:36:26.858Z,95376.31
2022-11-24T06:41:29.028Z,95392.78
2022-11-24T06:46:31.578Z,95408.13
2022-11-24T06:51:33.879Z,95384.97
2022-11-24T06:56:39.172Z,95395.41
2022-11-24T07:01:44.018Z,95365.88
2022-11-24T07:06:49.836Z,95408.44
2022-11-24T07:11:52.170Z,95409.41
2022-11-24T07:16:54.409Z,95390.13
2022-11-24T07:21:57.335Z,95393.78
2022-11-24T07:26:59.810Z,95370.09
2022-11-24T07:32:05.468Z,95389.69
2022-11-24T07:37:07.904Z,95384.41
2022-11-24T07:42:11.590Z,95397.75
2022-11-24T07:47:13.787Z,95410.16
2022-11-24T07:52:16.155Z,95413.41
2022-11-24T07:57:18.395Z,95443.72
2022-11-24T08:02:20.514Z,95462.78
2022-11-24T08:07:22.733Z,95458.34
2022-11-24T08:12:25.114Z,95491.78
2022-11-24T08:17:28.597Z,95507.81
2022-11-24T08:22:30.658Z,95514.56
2022-11-24T08:27:32.898Z,95527.97
2022-11-24T08:32:35.232Z,95540.06
2022-11-24T08:37:37.331Z,95541.63
2022-11-24T08:42:40.147Z,95567.97
2022-11-24T08:47:46.070Z,95557.06
2022-11-24T08:52:48.518Z,95573.38
2022-11-24T08:57:50.563Z,95577.13
2022-11-24T09:02:55.162Z,95563.56
2022-11-24T09:07:58.652Z,95608.59
2022-11-24T09:13:01.000Z,95612.53
2022-11-24T09:18:03.042Z,95619.25
2022-11-24T09:23:05.033Z,95619.09
2022-11-24T09:28:07.271Z,95597.06
2022-11-24T09:33:09.753Z,95610.34
2022-11-24T09:38:13.692Z,95597.16
2022-11-24T09:44:00.315Z,95609.50
2022-11-24T09:49:05.431Z,95604.22
2022-11-24T09:54:27.002Z,95595.47
2022-11-24T09:59:29.328Z,95609.84
2022-11-24T10:04:40.592Z,95591.19
2022-11-24T10:10:11.592Z,95591.38
2022-11-24T10:15:21.953Z,95598.91
2022-11-24T10:20:51.989Z,95588.19
2022-11-24T10:25:58.460Z,95569.38
2022-11-24T10:31:24.101Z,95588.75
2022-11-24T10:36:58.595Z,95601.75
2022-11-24T10:42:07.950Z,95599.22
2022-11-24T10:47:23.036Z,95589.31
2022-11-24T10:52:28.973Z,95585.94
2022-11-24T10:57:34.443Z,95567.19
2022-11-24T11:02:40.594Z,95573.09
2022-11-24T11:07:42.984Z,95576.47
2022-11-24T11:12:46.048Z,95581.59
2022-11-24T11:17:50.697Z,95587.81
2022-11-24T11:22:54.755Z,95587.53
2022-11-24T11:28:19.879Z,95591.03
2022-11-24T11:38:53.436Z,95583.97
2022-11-24T11:44:10.696Z,95578.59
2022-11-24T11:49:13.816Z,95593.31
2022-11-24T11:54:41.594Z,95579.53
2022-11-24T12:00:20.490Z,95605.66
2022-11-24T12:05:35.166Z,95584.28
2022-11-24T12:11:05.715Z,95604.13
2022-11-24T12:16:15.139Z,95588.19
2022-11-24T12:21:27.854Z,95603.97
2022-11-24T12:26:51.226Z,95610.03
2022-11-24T12:32:08.472Z,95604.13
2022-11-24T12:37:23.630Z,95575.84
2022-11-24T12:43:00.122Z,95605.72
2022-11-24T12:48:36.947Z,95599.59
2022-11-24T12:53:40.458Z,95608.84
2022-11-24T12:59:00.316Z,95601.78
2022-11-24T13:04:31.077Z,95590.84
2022-11-24T13:09:33.467Z,95578.78
2022-11-24T13:14:38.266Z,95609.16
2022-11-24T13:19:40.565Z,95601.63
2022-11-24T13:24:45.106Z,95607.84
2022-11-24T13:29:49.994Z,95591.19
2022-11-24T13:34:58.070Z,95621.94
2022-11-24T13:40:18.023Z,95592.53
2022-11-24T13:45:39.203Z,95622.22
2022-11-24T13:50:50.833Z,95629.34
2022-11-24T13:55:59.382Z,95631.84
2022-11-24T14:01:13.816Z,95614.13
2022-11-24T14:06:42.537Z,95643.09
2022-11-24T14:11:55.608Z,95629.78
2022-11-24T14:17:28.860Z,95632.88
2022-11-24T14:22:40.336Z,95634.97
2022-11-24T14:27:42.672Z,95637.47
2022-11-24T14:33:02.745Z,95623.63
2022-11-24T14:38:06.445Z,95638.56
2022-11-24T14:43:35.360Z,95655.66
2022-11-24T14:48:39.824Z,95665.06
2022-11-24T14:53:43.887Z,95672.44
2022-11-24T14:58:46.068Z,95660.94
2022-11-24T15:09:48.552Z,95672.41
2022-11-24T15:14:54.833Z,95680.41
2022-11-24T15:20:07.849Z,95693.22
2022-11-24T15:25:33.858Z,95696.56
2022-11-24T15:30:36.988Z,95719.56
2022-11-24T15:35:39.309Z,95718.66
2022-11-24T15:40:44.718Z,95719.50
2022-11-24T15:45:47.002Z,95721.63
2022-11-24T15:50:50.062Z,95713.38
2022-11-24T15:55:52.732Z,95710.97
2022-11-24T16:00:55.126Z,95726.84
2022-11-24T16:05:57.648Z,95721.16
2022-11-24T16:10:59.645Z,95720.69
2022-11-24T16:16:02.261Z,95738.13
2022-11-24T16:21:04.672Z,95739.25
2022-11-24T16:26:07.380Z,95757.13
2022-11-24T16:31:09.590Z,95741.44
2022-11-24T16:36:11.723Z,95737.47
2022-11-24T16:41:14.674Z,95738.28
2022-11-24T16:46:25.123Z,95751.31
2022-11-24T16:51:33.003Z,95743.72
2022-11-24T16:56:36.832Z,95737.28
2022-11-24T17:01:40.516Z,95751.47
2022-11-24T17:06:50.377Z,95760.81
2022-11-24T17:11:54.469Z,95750.59
2022-11-24T17:16:56.871Z,95756.41
2022-11-24T17:21:59.416Z,95756.63
2022-11-24T17:27:01.554Z,95736.09
2022-11-24T17:32:03.894Z,95753.63
2022-11-24T17:37:06.164Z,95749.91
2022-11-24T17:42:14.251Z,95747.19
2022-11-24T17:47:16.520Z,95738.16
2022-11-24T17:52:19.123Z,95730.97
2022-11-24T17:57:21.253Z,95738.94
2022-11-24T18:02:23.608Z,95751.63
2022-11-24T18:07:25.773Z,95731.09
2022-11-24T18:12:28.096Z,95742.41
2022-11-24T18:17:30.411Z,95752.53
2022-11-24T18:22:57.725Z,95741.28
2022-11-24T18:27:54.819Z,95750.47
2022-11-24T18:32:58.746Z,95752.63
2022-11-24T18:38:00.806Z,95759.97
2022-11-24T18:43:02.825Z,95754.59
2022-11-24T18:48:05.330Z,95762.69
2022-11-24T18:53:07.497Z,95782.53
2022-11-24T18:58:09.586Z,95760.63
2022-11-24T19:03:11.604Z,95758.84
2022-11-24T19:08:13.889Z,95775.16
2022-11-24T19:13:16.056Z,95772.06
2022-11-24T19:18:21.378Z,95781.75
2022-11-24T19:23:24.979Z,95772.34
2022-11-24T19:28:27.232Z,95759.84
2022-11-24T19:33:30.067Z,95791.25
2022-11-24T19:38:33.167Z,95796.84
2022-11-24T19:43:35.959Z,95798.31
2022-11-24T19:48:40.406Z,95789.72
2022-11-24T19:53:43.444Z,95799.97
2022-11-24T19:58:46.815Z,95801.63
2022-11-24T20:03:55.629Z,95798.34
2022-11-24T20:09:00.588Z,95798.22
2022-11-24T20:14:03.710Z,95805.38
2022-11-24T20:19:10.781Z,95798.94
2022-11-24T20:24:15.810Z,95789.25
2022-11-24T20:29:19.153Z,95801.44
2022-11-24T20:34:22.085Z,95789.78
2022-11-24T20:39:27.957Z,95795.41
2022-11-24T20:44:30.543Z,95794.91
2022-11-24T20:49:33.265Z,95752.09
2022-11-24T20:54:35.598Z,95783.31
2022-11-24T20:59:37.948Z,95795.84
2022-11-24T21:04:40.181Z,95794.03
2022-11-24T21:09:44.894Z,95785.91
2022-11-24T21:14:47.280Z,95793.25
2022-11-24T21:19:49.343Z,95802.13
2022-11-24T21:24:51.371Z,95789.00
2022-11-24T21:29:53.677Z,95793.97
2022-11-24T21:34:55.899Z,95792.56
2022-11-24T21:39:58.046Z,95806.84
2022-11-24T21:45:02.168Z,95806.13
2022-11-24T21:50:08.117Z,95816.34
2022-11-24T22:00:46.708Z,95782.84
2022-11-24T22:06:00.712Z,95782.69
2022-11-24T22:11:29.945Z,95810.59
2022-11-24T22:16:35.019Z,95764.31
2022-11-24T22:21:37.458Z,95801.84
2022-11-24T22:26:39.707Z,95818.69
2022-11-24T22:31:41.940Z,95818.78
2022-11-24T22:36:44.135Z,95799.47
2022-11-24T22:41:46.506Z,95810.75
2022-11-24T22:46:48.774Z,95817.31
2022-11-24T22:51:50.989Z,95815.16
2022-11-24T22:56:53.140Z,95824.41
2022-11-24T23:01:55.209Z,95831.78
2022-11-24T23:06:57.365Z,95820.69
2022-11-24T23:12:02.243Z,95811.44
2022-11-24T23:17:04.388Z,95817.00
2022-11-24T23:22:06.508Z,95805.06
2022-11-24T23:27:08.822Z,95838.81
2022-11-24T23:32:11.705Z,95829.25
2022-11-24T23:37:13.747Z,95832.84
2022-11-24T23:42:16.004Z,95850.84
2022-11-24T23:47:18.202Z,95818.16
2022-11-24T23:52:20.442Z,95836.25
2022-11-24T23:57:23.352Z,95855.38
